createdAt,value
2023-05-09T00:01:31.442Z,15.65
2023-05-09T00:03:59.643Z,15.62
2023-05-09T00:06:27.747Z,15.60
2023-05-09T00:08:55.795Z,15.64
2023-05-09T00:11:22.962Z,15.61
2023-05-09T00:13:50.725Z,15.60
2023-05-09T00:16:18.586Z,15.55
2023-05-09T00:18:45.776Z,15.52
2023-05-09T00:21:12.808Z,15.52
2023-05-09T00:23:39.896Z,15.55
2023-05-09T00:26:07.111Z,15.52
2023-05-09T00:28:34.191Z,15.50
2023-05-09T00:31:01.455Z,15.49
2023-05-09T00:33:28.822Z,15.47
2023-05-09T00:35:56.252Z,15.46
2023-05-09T00:38:23.834Z,15.47
2023-05-09T00:40:51.378Z,15.46
2023-05-09T00:43:18.628Z,15.46
2023-05-09T00:45:46.191Z,15.43
2023-05-09T00:48:15.377Z,15.41
2023-05-09T00:50:43.216Z,15.40
2023-05-09T00:53:10.597Z,15.43
2023-05-09T00:55:38.126Z,15.41
2023-05-09T00:58:06.203Z,15.39
2023-05-09T01:00:33.690Z,15.40
2023-05-09T01:03:01.065Z,15.42
2023-05-09T01:05:37.024Z,15.41
2023-05-09T01:08:13.148Z,15.44
2023-05-09T01:10:58.343Z,15.40
2023-05-09T01:13:51.860Z,15.43
2023-05-09T01:16:43.163Z,15.42
2023-05-09T01:19:28.802Z,15.39
2023-05-09T01:21:57.076Z,15.38
2023-05-09T01:24:32.838Z,15.34
2023-05-09T01:27:27.062Z,15.28
2023-05-09T01:30:02.986Z,15.27
2023-05-09T01:32:32.833Z,15.23
2023-05-09T01:35:02.632Z,15.23
2023-05-09T01:37:35.898Z,15.24
2023-05-09T01:40:23.964Z,15.24
2023-05-09T01:43:03.954Z,15.22
2023-05-09T01:45:32.725Z,15.18
2023-05-09T01:48:00.836Z,15.15
2023-05-09T01:50:30.063Z,15.12
2023-05-09T01:52:59.502Z,15.06
2023-05-09T01:55:28.906Z,15.14
2023-05-09T01:57:58.697Z,15.12
2023-05-09T02:00:27.165Z,15.11
2023-05-09T02:02:55.531Z,15.01
2023-05-09T02:05:27.204Z,15.05
2023-05-09T02:07:59.307Z,15.07
2023-05-09T02:10:29.332Z,15.05
2023-05-09T02:12:57.427Z,15.10
2023-05-09T02:15:24.798Z,15.08
2023-05-09T02:17:52.419Z,15.07
2023-05-09T02:20:20.144Z,15.06
2023-05-09T02:22:47.936Z,15.02
2023-05-09T02:25:15.506Z,15.06
2023-05-09T02:27:46.651Z,15.08
2023-05-09T02:30:20.620Z,15.06
2023-05-09T02:32:50.569Z,15.03
2023-05-09T02:35:18.785Z,15.03
2023-05-09T02:37:47.013Z,15.01
2023-05-09T02:40:14.742Z,14.96
2023-05-09T02:42:41.936Z,14.97
2023-05-09T02:45:10.555Z,14.94
2023-05-09T02:47:38.496Z,14.97
2023-05-09T02:50:06.684Z,14.94
2023-05-09T02:52:33.839Z,14.91
2023-05-09T02:55:00.882Z,14.94
2023-05-09T02:57:27.969Z,14.92
2023-05-09T02:59:55.138Z,14.89
2023-05-09T03:02:23.770Z,14.90
2023-05-09T03:04:50.985Z,14.88
2023-05-09T03:07:18.090Z,14.90
2023-05-09T03:09:45.162Z,14.86
2023-05-09T03:12:12.213Z,14.87
2023-05-09T03:14:39.327Z,14.84
2023-05-09T03:17:06.433Z,14.85
2023-05-09T03:19:33.652Z,14.81
2023-05-09T03:22:00.872Z,14.83
2023-05-09T03:24:30.787Z,14.83
2023-05-09T03:26:57.833Z,14.82
2023-05-09T03:29:25.931Z,14.79
2023-05-09T03:31:53.162Z,14.73
2023-05-09T03:34:20.373Z,14.72
2023-05-09T03:36:47.439Z,14.74
2023-05-09T03:39:14.454Z,14.72
2023-05-09T03:41:43.616Z,14.75
2023-05-09T03:44:10.717Z,14.74
2023-05-09T03:46:37.802Z,14.77
2023-05-09T03:49:05.120Z,14.78
2023-05-09T03:51:32.665Z,14.74
2023-05-09T03:53:59.997Z,14.78
2023-05-09T03:56:27.210Z,14.79
2023-05-09T03:58:54.288Z,14.79
2023-05-09T04:01:21.358Z,14.79
2023-05-09T04:03:48.404Z,14.82
2023-05-09T04:06:15.998Z,14.81
2023-05-09T04:08:43.167Z,14.79
2023-05-09T04:11:10.355Z,14.77
2023-05-09T04:13:37.482Z,14.80
2023-05-09T04:16:05.057Z,14.78
2023-05-09T04:18:32.124Z,14.71
2023-05-09T04:20:59.130Z,14.74
2023-05-09T04:23:26.201Z,14.74
2023-05-09T04:25:54.314Z,14.78
2023-05-09T04:28:21.431Z,14.79
2023-05-09T04:30:48.553Z,14.83
2023-05-09T04:33:15.982Z,14.83
2023-05-09T04:35:43.126Z,14.81
2023-05-09T04:38:10.358Z,14.75
2023-05-09T04:40:37.536Z,14.71
2023-05-09T04:43:05.213Z,14.76
2023-05-09T04:45:32.303Z,14.78
2023-05-09T04:47:59.393Z,14.84
2023-05-09T04:50:26.547Z,14.87
2023-05-09T04:52:53.511Z,14.85
2023-05-09T04:55:20.568Z,14.87
2023-05-09T04:57:47.683Z,14.85
2023-05-09T05:00:17.076Z,14.87
2023-05-09T05:02:44.217Z,14.85
2023-05-09T05:05:12.634Z,14.85
2023-05-09T05:07:39.907Z,14.83
2023-05-09T05:10:07.532Z,14.85
2023-05-09T05:12:34.676Z,14.84
2023-05-09T05:15:02.077Z,14.82
2023-05-09T05:17:29.596Z,14.83
2023-05-09T05:19:56.870Z,14.85
2023-05-09T05:22:24.300Z,14.87
2023-05-09T05:24:51.375Z,14.93
2023-05-09T05:27:18.488Z,15.02
2023-05-09T05:29:45.969Z,15.10
2023-05-09T05:32:13.094Z,15.23
2023-05-09T05:34:40.213Z,15.30
2023-05-09T05:37:07.362Z,15.38
2023-05-09T05:39:34.458Z,15.41
2023-05-09T05:42:01.926Z,15.51
2023-05-09T05:44:29.089Z,15.52
2023-05-09T05:46:56.205Z,15.65
2023-05-09T05:49:25.047Z,15.63
2023-05-09T05:51:52.174Z,15.75
2023-05-09T05:54:19.257Z,15.77
2023-05-09T05:56:46.771Z,15.87
2023-05-09T05:59:13.809Z,15.89
2023-05-09T06:01:41.221Z,15.94
2023-05-09T06:04:08.507Z,15.96
2023-05-09T06:06:36.378Z,16.04
2023-05-09T06:09:03.478Z,16.01
2023-05-09T06:11:30.553Z,16.05
2023-05-09T06:13:57.656Z,16.03
2023-05-09T06:16:24.902Z,16.07
2023-05-09T06:18:54.890Z,16.08
2023-05-09T06:21:23.216Z,16.08
2023-05-09T06:24:02.066Z,16.09
2023-05-09T06:26:36.234Z,16.00
2023-05-09T06:29:04.523Z,16.00
2023-05-09T06:31:31.791Z,16.02
2023-05-09T06:33:58.894Z,16.04
2023-05-09T06:36:26.213Z,15.99
2023-05-09T06:38:54.104Z,15.97
2023-05-09T06:41:21.795Z,16.02
2023-05-09T06:43:49.901Z,16.04
2023-05-09T06:46:17.211Z,16.08
2023-05-09T06:48:44.613Z,16.06
2023-05-09T06:51:11.655Z,16.11
2023-05-09T06:53:38.673Z,16.23
2023-05-09T06:56:06.925Z,16.27
2023-05-09T06:58:34.098Z,16.27
2023-05-09T07:01:01.629Z,16.34
2023-05-09T07:03:28.759Z,16.40
2023-05-09T07:05:58.794Z,16.32
2023-05-09T07:08:26.708Z,16.38
2023-05-09T07:10:53.849Z,16.38
2023-05-09T07:13:21.035Z,16.34
2023-05-09T07:15:48.145Z,16.32
2023-05-09T07:18:15.814Z,16.17
2023-05-09T07:20:42.922Z,16.37
2023-05-09T07:23:09.952Z,16.33
2023-05-09T07:25:37.065Z,16.34
2023-05-09T07:28:04.347Z,16.36
2023-05-09T07:30:31.452Z,16.28
2023-05-09T07:32:58.587Z,16.26
2023-05-09T07:35:26.354Z,16.34
2023-05-09T07:37:53.662Z,16.35
2023-05-09T07:40:20.817Z,16.37
2023-05-09T07:42:49.925Z,16.35
2023-05-09T07:45:18.357Z,16.28
2023-05-09T07:47:47.233Z,16.27
2023-05-09T07:50:14.288Z,16.20
2023-05-09T07:52:41.432Z,16.17
2023-05-09T07:55:09.053Z,16.18
2023-05-09T07:57:37.089Z,16.21
2023-05-09T08:00:06.875Z,16.23
2023-05-09T08:02:34.043Z,16.26
2023-05-09T08:05:01.769Z,16.29
2023-05-09T08:07:28.888Z,16.19
2023-05-09T08:09:56.066Z,16.20
2023-05-09T08:12:23.105Z,16.20
2023-05-09T08:14:50.266Z,16.04
2023-05-09T08:17:17.600Z,16.06
2023-05-09T08:19:44.686Z,16.08
2023-05-09T08:22:18.633Z,16.01
2023-05-09T08:24:46.972Z,16.07
2023-05-09T08:27:15.780Z,16.07
2023-05-09T08:29:43.607Z,16.07
2023-05-09T08:32:10.727Z,16.07
2023-05-09T08:34:37.850Z,16.06
2023-05-09T08:37:05.289Z,16.14
2023-05-09T08:39:34.787Z,16.21
2023-05-09T08:42:02.498Z,16.19
2023-05-09T08:44:32.121Z,16.08
2023-05-09T08:47:00.836Z,16.09
2023-05-09T08:49:28.711Z,16.17
2023-05-09T08:51:57.019Z,16.23
2023-05-09T08:54:24.898Z,16.23
2023-05-09T08:56:52.244Z,16.20
2023-05-09T08:59:19.630Z,16.20
2023-05-09T09:01:47.446Z,16.24
2023-05-09T09:04:14.883Z,16.34
2023-05-09T09:06:42.650Z,16.41
2023-05-09T09:09:11.879Z,16.41
2023-05-09T09:11:40.665Z,16.50
2023-05-09T09:14:20.180Z,16.40
2023-05-09T09:16:49.749Z,16.39
2023-05-09T09:19:18.044Z,16.43
2023-05-09T09:21:47.493Z,16.45
2023-05-09T09:24:15.553Z,16.38
2023-05-09T09:26:47.846Z,16.38
2023-05-09T09:29:16.230Z,16.44
2023-05-09T09:31:48.163Z,16.48
2023-05-09T09:34:21.336Z,16.48
2023-05-09T09:36:49.138Z,16.47
2023-05-09T09:39:16.704Z,16.45
2023-05-09T09:41:44.920Z,16.46
2023-05-09T09:44:14.619Z,16.46
2023-05-09T09:46:52.646Z,16.43
2023-05-09T09:49:25.778Z,16.29
2023-05-09T09:51:54.752Z,16.32
2023-05-09T09:54:22.638Z,16.34
2023-05-09T09:56:56.471Z,16.37
2023-05-09T09:59:25.744Z,16.34
2023-05-09T10:02:04.017Z,16.21
2023-05-09T10:04:41.730Z,16.23
2023-05-09T10:07:14.353Z,16.23
2023-05-09T10:09:43.710Z,16.23
2023-05-09T10:12:11.893Z,16.14
2023-05-09T10:14:42.529Z,16.14
2023-05-09T10:17:13.549Z,16.12
2023-05-09T10:19:46.059Z,16.03
2023-05-09T10:22:16.066Z,16.04
2023-05-09T10:24:57.957Z,16.01
2023-05-09T10:27:28.796Z,15.95
2023-05-09T10:30:08.744Z,15.97
2023-05-09T10:32:38.556Z,16.01
2023-05-09T10:35:08.438Z,15.98
2023-05-09T10:37:35.830Z,15.97
2023-05-09T10:40:05.442Z,15.92
2023-05-09T10:42:36.555Z,16.00
2023-05-09T10:45:03.731Z,16.03
2023-05-09T10:47:33.245Z,15.93
2023-05-09T10:50:00.697Z,15.93
2023-05-09T10:53:07.373Z,15.97
2023-05-09T10:55:53.080Z,16.03
2023-05-09T10:58:21.747Z,16.09
2023-05-09T11:00:49.786Z,16.14
2023-05-09T11:03:20.936Z,16.19
2023-05-09T11:05:50.382Z,16.09
2023-05-09T11:08:26.276Z,16.11
2023-05-09T11:10:58.176Z,16.07
2023-05-09T11:13:26.281Z,16.10
2023-05-09T11:15:59.089Z,16.09
2023-05-09T11:18:26.431Z,16.10
2023-05-09T11:20:53.854Z,16.13
2023-05-09T11:23:25.470Z,16.10
2023-05-09T11:25:53.736Z,16.05
2023-05-09T11:28:32.413Z,16.06
2023-05-09T11:31:12.676Z,16.21
2023-05-09T11:33:40.970Z,16.21
2023-05-09T11:36:30.068Z,16.19
2023-05-09T11:39:11.506Z,16.19
2023-05-09T11:41:48.781Z,16.11
2023-05-09T11:44:20.969Z,16.06
2023-05-09T11:46:49.223Z,15.98
2023-05-09T11:49:17.206Z,15.93
2023-05-09T11:51:44.419Z,15.90
2023-05-09T11:54:13.630Z,15.86
2023-05-09T11:56:42.026Z,15.88
2023-05-09T11:59:10.544Z,15.82
2023-05-09T12:01:37.818Z,15.85
2023-05-09T12:04:08.675Z,15.82
2023-05-09T12:06:37.026Z,15.80
2023-05-09T12:09:04.179Z,15.77
2023-05-09T12:11:32.407Z,15.72
2023-05-09T12:13:59.601Z,15.67
2023-05-09T12:16:26.871Z,15.62
2023-05-09T12:18:54.742Z,15.57
2023-05-09T12:21:22.105Z,15.58
2023-05-09T12:23:51.232Z,15.51
2023-05-09T12:26:22.146Z,15.47
2023-05-09T12:28:49.977Z,15.38
2023-05-09T12:31:17.592Z,15.35
2023-05-09T12:33:44.805Z,15.28
2023-05-09T12:36:13.718Z,15.35
2023-05-09T12:38:41.198Z,15.34
2023-05-09T12:41:18.851Z,15.37
2023-05-09T12:43:57.166Z,15.35
2023-05-09T12:46:24.372Z,15.43
2023-05-09T12:48:51.764Z,15.43
2023-05-09T12:51:20.611Z,15.43
2023-05-09T12:53:48.412Z,15.42
2023-05-09T12:56:17.673Z,15.46
2023-05-09T12:58:52.121Z,15.54
2023-05-09T13:01:20.808Z,15.64
2023-05-09T13:04:02.751Z,15.72
2023-05-09T13:06:30.733Z,15.73
2023-05-09T13:09:06.634Z,15.76
2023-05-09T13:11:33.825Z,15.74
2023-05-09T13:14:03.269Z,15.85
2023-05-09T13:16:30.431Z,15.89
2023-05-09T13:18:58.074Z,15.93
2023-05-09T13:21:25.318Z,15.81
2023-05-09T13:23:52.632Z,15.83
2023-05-09T13:26:19.850Z,15.88
2023-05-09T13:28:47.582Z,15.85
2023-05-09T13:31:14.794Z,15.89
2023-05-09T13:33:41.952Z,15.88
2023-05-09T13:36:09.101Z,15.88
2023-05-09T13:38:40.430Z,15.88
2023-05-09T13:41:08.310Z,15.89
2023-05-09T13:43:37.156Z,15.91
2023-05-09T13:46:04.243Z,15.85
2023-05-09T13:48:42.383Z,15.81
2023-05-09T14:37:14.088Z,15.76
2023-05-09T14:47:13.106Z,15.88
2023-05-09T14:54:04.456Z,15.81
2023-05-09T14:56:31.804Z,15.77
2023-05-09T14:58:58.948Z,15.82
2023-05-09T15:01:26.143Z,15.85
2023-05-09T15:03:53.412Z,15.76
2023-05-09T15:06:20.767Z,15.81
2023-05-09T15:08:47.918Z,15.80
2023-05-09T15:11:14.958Z,15.94
2023-05-09T15:13:42.074Z,15.96
2023-05-09T15:16:09.142Z,15.81
2023-05-09T15:18:36.712Z,15.78
2023-05-09T15:21:03.996Z,15.72
2023-05-09T15:23:31.061Z,15.70
2023-05-09T15:25:58.213Z,15.73
2023-05-09T15:28:25.479Z,15.73
2023-05-09T15:30:52.696Z,15.78
2023-05-09T15:33:19.832Z,15.80
2023-05-09T15:35:49.111Z,15.87
2023-05-09T15:38:17.178Z,15.94
2023-05-09T15:40:44.402Z,15.92
2023-05-09T15:43:12.983Z,15.86
2023-05-09T15:47:17.672Z,15.51
2023-05-09T15:49:44.959Z,15.55
2023-05-09T15:52:12.538Z,15.59
2023-05-09T15:54:40.049Z,15.62
2023-05-09T15:57:08.160Z,15.66
2023-05-09T15:59:35.916Z,15.68
2023-05-09T16:02:03.256Z,15.61
2023-05-09T16:04:30.595Z,15.54
2023-05-09T16:06:57.823Z,15.57
2023-05-09T16:09:25.381Z,15.51
2023-05-09T16:11:52.791Z,15.49
2023-05-09T16:14:20.057Z,15.46
2023-05-09T16:16:49.981Z,15.39
2023-05-09T16:19:17.770Z,15.27
2023-05-09T16:21:47.715Z,15.14
2023-05-09T16:24:14.887Z,15.07
2023-05-09T16:26:41.994Z,15.03
2023-05-09T16:29:09.911Z,14.97
2023-05-09T16:31:37.361Z,14.92
2023-05-09T16:34:04.711Z,14.86
2023-05-09T16:36:32.819Z,14.94
2023-05-09T16:38:59.993Z,14.87
2023-05-09T16:41:27.196Z,14.86
2023-05-09T16:43:54.415Z,14.93
2023-05-09T16:46:21.692Z,14.93
2023-05-09T16:48:51.735Z,14.96
2023-05-09T16:51:18.788Z,14.97
2023-05-09T16:53:46.067Z,15.03
2023-05-09T16:56:13.228Z,15.02
2023-05-09T16:58:40.336Z,14.92
2023-05-09T17:01:07.440Z,14.99
2023-05-09T17:03:34.673Z,14.93
2023-05-09T17:06:01.874Z,14.98
2023-05-09T17:08:29.768Z,15.05
2023-05-09T17:10:57.624Z,15.02
2023-05-09T17:13:24.907Z,15.07
2023-05-09T17:15:52.700Z,15.10
2023-05-09T17:18:33.396Z,15.11
2023-05-09T17:21:05.057Z,15.10
2023-05-09T17:23:32.448Z,15.11
2023-05-09T17:25:59.598Z,15.13
2023-05-09T17:28:26.956Z,15.08
2023-05-09T17:30:54.081Z,15.13
2023-05-09T17:33:21.221Z,15.17
2023-05-09T17:35:49.570Z,15.12
2023-05-09T17:38:17.360Z,15.14
2023-05-09T17:40:44.942Z,15.21
2023-05-09T17:43:13.321Z,15.12
2023-05-09T17:45:40.421Z,15.14
2023-05-09T17:48:08.088Z,15.04
2023-05-09T17:50:35.267Z,15.08
2023-05-09T17:53:02.564Z,15.10
2023-05-09T17:55:30.373Z,15.06
2023-05-09T17:57:57.422Z,15.07
2023-05-09T18:00:24.523Z,15.10
2023-05-09T18:02:51.743Z,15.16
2023-05-09T18:05:18.873Z,15.16
2023-05-09T18:07:46.007Z,15.11
2023-05-09T18:10:13.534Z,15.07
2023-05-09T18:12:40.922Z,15.10
2023-05-09T18:15:08.559Z,15.13
2023-05-09T18:17:36.057Z,15.13
2023-05-09T18:20:05.031Z,15.14
2023-05-09T18:22:32.089Z,15.13
2023-05-09T18:24:59.383Z,15.13
2023-05-09T18:27:27.200Z,15.10
2023-05-09T18:29:54.346Z,15.06
2023-05-09T18:32:21.878Z,15.07
2023-05-09T18:34:49.390Z,15.14
2023-05-09T18:37:17.116Z,15.12
2023-05-09T18:39:44.775Z,15.14
2023-05-09T18:42:12.942Z,15.14
2023-05-09T18:44:41.690Z,15.14
2023-05-09T18:47:08.769Z,15.16
2023-05-09T18:49:36.172Z,15.18
2023-05-09T18:52:03.458Z,15.16
2023-05-09T18:54:30.703Z,15.16
2023-05-09T18:56:58.077Z,15.15
2023-05-09T18:59:25.165Z,15.11
2023-05-09T19:01:52.384Z,15.10
2023-05-09T19:04:19.949Z,15.08
2023-05-09T19:06:47.266Z,15.06
2023-05-09T19:09:14.450Z,15.08
2023-05-09T19:11:41.935Z,15.11
2023-05-09T19:14:09.127Z,15.08
2023-05-09T19:16:36.363Z,15.06
2023-05-09T19:19:03.484Z,15.09
2023-05-09T19:21:30.663Z,15.05
2023-05-09T19:23:57.767Z,15.02
2023-05-09T19:26:24.881Z,14.97
2023-05-09T19:28:51.976Z,14.92
2023-05-09T19:31:20.461Z,14.87
2023-05-09T19:33:47.953Z,14.87
2023-05-09T19:36:15.107Z,14.83
2023-05-09T19:38:42.297Z,14.82
2023-05-09T19:41:10.867Z,14.60
2023-05-09T19:43:37.983Z,14.66
2023-05-09T19:46:05.173Z,14.62
2023-05-09T19:48:32.298Z,14.62
2023-05-09T19:50:59.438Z,14.61
2023-05-09T19:53:26.658Z,14.65
2023-05-09T19:55:53.693Z,14.46
2023-05-09T19:58:20.893Z,14.59
2023-05-09T20:00:48.557Z,14.66
2023-05-09T20:03:15.803Z,14.71
2023-05-09T20:05:43.188Z,14.70
2023-05-09T20:08:10.493Z,14.53
2023-05-09T20:10:37.620Z,14.44
2023-05-09T20:13:04.983Z,14.35
2023-05-09T20:15:32.345Z,14.32
2023-05-09T20:18:03.238Z,14.34
2023-05-09T20:20:33.592Z,14.27
2023-05-09T20:23:00.761Z,14.17
2023-05-09T20:25:27.927Z,14.04
2023-05-09T20:27:55.023Z,13.97
2023-05-09T20:30:22.229Z,13.95
2023-05-09T20:32:49.465Z,14.02
2023-05-09T20:35:17.293Z,13.98
2023-05-09T20:37:44.371Z,13.89
2023-05-09T20:40:12.236Z,13.75
2023-05-09T20:42:39.310Z,13.80
2023-05-09T20:45:07.740Z,13.85
2023-05-09T20:47:35.231Z,13.82
2023-05-09T20:50:02.379Z,13.75
2023-05-09T20:52:29.457Z,13.73
2023-05-09T20:54:56.657Z,13.73
2023-05-09T20:57:23.801Z,13.75
2023-05-09T20:59:50.952Z,13.74
2023-05-09T21:02:18.073Z,13.81
2023-05-09T21:04:45.257Z,13.70
2023-05-09T21:07:12.458Z,13.81
2023-05-09T21:09:39.704Z,13.79
2023-05-09T21:12:09.190Z,13.77
2023-05-09T21:14:37.667Z,13.67
2023-05-09T21:17:05.466Z,13.79
2023-05-09T21:19:34.143Z,13.76
2023-05-09T21:22:01.601Z,13.54
2023-05-09T21:24:28.787Z,13.56
2023-05-09T21:26:56.143Z,13.60
2023-05-09T21:29:23.221Z,13.47
2023-05-09T21:31:50.343Z,13.43
2023-05-09T21:34:18.723Z,13.44
2023-05-09T21:36:46.136Z,13.49
2023-05-09T21:39:13.323Z,13.48
2023-05-09T21:41:42.659Z,13.45
2023-05-09T21:44:11.251Z,13.50
2023-05-09T21:46:38.540Z,13.49
2023-05-09T21:49:06.561Z,13.56
2023-05-09T21:51:34.231Z,13.53
2023-05-09T21:54:01.990Z,13.59
2023-05-09T21:56:29.539Z,13.60
2023-05-09T21:58:56.687Z,13.66
2023-05-09T22:01:23.888Z,13.69
2023-05-09T22:03:51.692Z,13.68
2023-05-09T22:06:18.946Z,13.75
2023-05-09T22:08:46.167Z,13.74
2023-05-09T22:11:14.761Z,13.77
2023-05-09T22:13:42.425Z,13.75
2023-05-09T22:16:09.756Z,13.80
2023-05-09T22:18:37.145Z,13.80
2023-05-09T22:21:05.227Z,13.83
2023-05-09T22:23:32.300Z,13.87
2023-05-09T22:25:59.314Z,13.91
2023-05-09T22:28:26.379Z,13.82
2023-05-09T22:30:53.419Z,13.90
2023-05-09T22:33:20.473Z,13.95
2023-05-09T22:35:47.908Z,13.96
2023-05-09T22:38:15.147Z,13.97
2023-05-09T22:40:42.330Z,13.95
2023-05-09T22:43:10.847Z,14.03
2023-05-09T22:45:41.011Z,14.07
2023-05-09T22:48:08.364Z,14.07
2023-05-09T22:50:36.020Z,14.13
2023-05-09T22:53:03.090Z,14.11
2023-05-09T22:55:30.379Z,14.14
2023-05-09T22:57:57.378Z,14.13
2023-05-09T23:00:24.523Z,14.11
2023-05-09T23:02:51.777Z,14.08
2023-05-09T23:05:18.964Z,14.13
2023-05-09T23:07:46.190Z,14.11
2023-05-09T23:10:13.412Z,14.11
2023-05-09T23:12:40.611Z,14.03
2023-05-09T23:15:08.464Z,14.09
2023-05-09T23:17:35.995Z,14.11
2023-05-09T23:20:04.058Z,14.17
2023-05-09T23:22:31.165Z,14.12
2023-05-09T23:25:00.751Z,14.17
2023-05-09T23:27:28.350Z,14.18
2023-05-09T23:29:55.382Z,14.04
2023-05-09T23:32:22.523Z,13.99
2023-05-09T23:34:49.640Z,13.94
2023-05-09T23:37:17.657Z,13.97
2023-05-09T23:39:44.780Z,13.97
2023-05-09T23:42:12.386Z,13.98
2023-05-09T23:44:39.591Z,13.97
2023-05-09T23:47:06.997Z,13.98
2023-05-09T23:49:34.152Z,13.98
2023-05-09T23:52:01.655Z,13.92
2023-05-09T23:54:28.790Z,13.97
2023-05-09T23:56:59.004Z,13.94
2023-05-09T23:59:26.128Z,13.96
